N12KBM KSNA-
Flight info
| Callsign | N12KBM |
|---|---|
| Flight time | N/A |
| Altitude | VFR |
| Route | VFR |
| Aircraft | PA28/L-DOV/C |
Departure
| Time | 2026-05-05 00:45 |
|---|---|
| Airport | John Wayne Orange County International Airport (KSNA) |
Arrival
| Time | N/A |
|---|---|
| Airport | - |
| Time | Latitude | Longitude | Altitude | Speed | Heading |
|---|---|---|---|---|---|
| 2026-05-05 00:36 | 33.67579 | -117.87093 | 53 ft | 0 kts | 360° |
| 2026-05-05 00:41 | 33.67580 | -117.87093 | 53 ft | 0 kts | 360° |
| 2026-05-05 00:42 | 33.67581 | -117.87092 | 53 ft | 0 kts | 34° |
| 2026-05-05 00:42 | 33.67582 | -117.87088 | 53 ft | 0 kts | 119° |
| 2026-05-05 00:43 | 33.67575 | -117.87075 | 54 ft | 4 kts | 122° |
| 2026-05-05 00:43 | 33.67567 | -117.87061 | 54 ft | 0 kts | 125° |
| 2026-05-05 00:43 | 33.67494 | -117.87084 | 54 ft | 17 kts | 202° |
| 2026-05-05 00:43 | 33.67469 | -117.87096 | 54 ft | 1 kts | 201° |
| 2026-05-05 00:44 | 33.67430 | -117.87087 | 55 ft | 0 kts | 136° |
| 2026-05-05 00:44 | 33.67408 | -117.87031 | 54 ft | 16 kts | 114° |
| 2026-05-05 00:44 | 33.67307 | -117.87058 | 55 ft | 40 kts | 209° |
| 2026-05-05 00:45 | 33.66911 | -117.87311 | 155 ft | 79 kts | 208° |
| 2026-05-05 00:45 | 33.66507 | -117.87755 | 434 ft | 85 kts | 265° |
| 2026-05-05 00:45 | 33.66995 | -117.88099 | 559 ft | 107 kts | 13° |
| 2026-05-05 00:45 | 33.67732 | -117.87689 | 665 ft | 128 kts | 27° |
| 2026-05-05 00:46 | 33.68529 | -117.87152 | 832 ft | 134 kts | 29° |
| 2026-05-05 00:46 | 33.69368 | -117.86567 | 901 ft | 144 kts | 30° |
| 2026-05-05 00:46 | 33.70202 | -117.85930 | 1083 ft | 140 kts | 33° |
| 2026-05-05 00:46 | 33.71001 | -117.85222 | 1150 ft | 145 kts | 39° |
| 2026-05-05 00:47 | 33.71254 | -117.84122 | 1070 ft | 152 kts | 115° |
| 2026-05-05 00:47 | 33.70345 | -117.83802 | 793 ft | 161 kts | 218° |
| 2026-05-05 00:47 | 33.69814 | -117.84899 | 850 ft | 144 kts | 246° |
| 2026-05-05 00:47 | 33.69307 | -117.85764 | 486 ft | 106 kts | 223° |
| 2026-05-05 00:48 | 33.68751 | -117.86145 | 269 ft | 85 kts | 206° |
| 2026-05-05 00:48 | 33.68270 | -117.86439 | 116 ft | 74 kts | 207° |
| 2026-05-05 00:48 | 33.67853 | -117.86701 | 54 ft | 59 kts | 208° |
| 2026-05-05 00:48 | 33.67460 | -117.86953 | 156 ft | 75 kts | 207° |
| 2026-05-05 00:49 | 33.66963 | -117.87272 | 391 ft | 88 kts | 210° |
| 2026-05-05 00:49 | 33.66512 | -117.87816 | 636 ft | 97 kts | 266° |
| 2026-05-05 00:49 | 33.67027 | -117.88208 | 733 ft | 118 kts | 17° |
| 2026-05-05 00:49 | 33.67871 | -117.87829 | 637 ft | 126 kts | 21° |
| 2026-05-05 00:50 | 33.68586 | -117.87444 | 766 ft | 103 kts | 25° |
| 2026-05-05 00:50 | 33.69205 | -117.87041 | 803 ft | 97 kts | 30° |
| 2026-05-05 00:50 | 33.69764 | -117.86597 | 833 ft | 99 kts | 37° |
| 2026-05-05 00:50 | 33.69818 | -117.85931 | 845 ft | 95 kts | 135° |
| 2026-05-05 00:51 | 33.69234 | -117.85825 | 550 ft | 90 kts | 205° |
| 2026-05-05 00:51 | 33.68686 | -117.86172 | 279 ft | 88 kts | 210° |
| 2026-05-05 00:51 | 33.68168 | -117.86501 | 97 ft | 78 kts | 208° |
| 2026-05-05 00:51 | 33.67740 | -117.86776 | 55 ft | 61 kts | 208° |
| 2026-05-05 00:52 | 33.67296 | -117.87052 | 199 ft | 81 kts | 208° |
| 2026-05-05 00:52 | 33.66762 | -117.87414 | 402 ft | 98 kts | 211° |
| 2026-05-05 00:52 | 33.66393 | -117.88033 | 715 ft | 97 kts | 292° |
| 2026-05-05 00:52 | 33.66985 | -117.88108 | 729 ft | 124 kts | 21° |
| 2026-05-05 00:53 | 33.67783 | -117.87694 | 507 ft | 119 kts | 24° |
| 2026-05-05 00:53 | 33.68476 | -117.87285 | 573 ft | 112 kts | 24° |
| 2026-05-05 00:53 | 33.69174 | -117.86808 | 637 ft | 107 kts | 38° |
| 2026-05-05 00:53 | 33.69288 | -117.86155 | 646 ft | 92 kts | 140° |
| 2026-05-05 00:54 | 33.68697 | -117.86191 | 329 ft | 94 kts | 208° |
| 2026-05-05 00:54 | 33.68161 | -117.86505 | 104 ft | 78 kts | 207° |
| 2026-05-05 00:54 | 33.67729 | -117.86781 | 56 ft | 66 kts | 209° |
| 2026-05-05 00:54 | 33.67253 | -117.87092 | 256 ft | 84 kts | 210° |
| 2026-05-05 00:55 | 33.66735 | -117.87462 | 543 ft | 88 kts | 213° |
| 2026-05-05 00:55 | 33.66550 | -117.87971 | 912 ft | 80 kts | 315° |
| 2026-05-05 00:55 | 33.67249 | -117.87923 | 726 ft | 127 kts | 14° |
| 2026-05-05 00:55 | 33.68062 | -117.87590 | 804 ft | 110 kts | 19° |
| 2026-05-05 00:56 | 33.68737 | -117.87267 | 784 ft | 102 kts | 22° |
| 2026-05-05 00:56 | 33.69407 | -117.86904 | 600 ft | 109 kts | 25° |
| 2026-05-05 00:56 | 33.69901 | -117.86403 | 723 ft | 88 kts | 79° |
| 2026-05-05 00:56 | 33.69490 | -117.85870 | 618 ft | 96 kts | 165° |
| 2026-05-05 00:57 | 33.68885 | -117.86067 | 369 ft | 89 kts | 208° |
| 2026-05-05 00:57 | 33.68355 | -117.86390 | 158 ft | 79 kts | 208° |
| 2026-05-05 00:57 | 33.67905 | -117.86669 | 56 ft | 66 kts | 208° |
| 2026-05-05 00:57 | 33.67605 | -117.86870 | 56 ft | 34 kts | 215° |
| 2026-05-05 00:58 | 33.67577 | -117.86956 | 57 ft | 6 kts | 304° |
| 2026-05-05 00:58 | 33.67594 | -117.86986 | 56 ft | 8 kts | 303° |
| 2026-05-05 00:58 | 33.67587 | -117.87045 | 55 ft | 8 kts | 244° |